createdAt,value
2023-04-02T00:00:25.115Z,3.57
2023-04-02T00:02:55.153Z,3.59
2023-04-02T00:05:26.076Z,3.53
2023-04-02T00:07:57.986Z,3.51
2023-04-02T00:10:50.993Z,3.50
2023-04-02T00:13:24.353Z,3.55
2023-04-02T00:15:56.980Z,3.59
2023-04-02T00:18:24.938Z,3.64
2023-04-02T00:20:59.343Z,3.69
2023-04-02T00:23:26.669Z,3.75
2023-04-02T00:25:53.291Z,3.79
2023-04-02T00:28:23.287Z,3.79
2023-04-02T00:30:53.297Z,3.74
2023-04-02T00:33:24.350Z,3.78
2023-04-02T00:35:53.389Z,3.77
2023-04-02T00:38:29.983Z,3.81
2023-04-02T00:40:59.518Z,3.77
2023-04-02T00:43:29.046Z,3.89
2023-04-02T00:45:58.366Z,3.90
2023-04-02T00:48:31.663Z,4.00
2023-04-02T00:51:08.272Z,4.02
2023-04-02T00:53:37.108Z,4.03
2023-04-02T00:56:12.809Z,3.91
2023-04-02T00:58:39.976Z,3.92
2023-04-02T01:01:22.815Z,3.78
2023-04-02T01:04:01.459Z,3.69
2023-04-02T01:06:34.179Z,3.58
2023-04-02T01:09:18.402Z,3.62
2023-04-02T01:11:56.783Z,3.68
2023-04-02T01:14:29.143Z,3.67
2023-04-02T01:17:03.563Z,3.71
2023-04-02T01:20:11.207Z,3.79
2023-04-02T01:22:48.026Z,3.81
2023-04-02T01:25:22.584Z,3.82
2023-04-02T01:28:06.712Z,3.73
2023-04-02T01:30:36.090Z,3.71
2023-04-02T01:33:03.965Z,3.67
2023-04-02T01:35:38.203Z,3.68
2023-04-02T01:38:22.607Z,3.61
2023-04-02T01:41:09.325Z,3.56
2023-04-02T01:44:01.300Z,3.54
2023-04-02T01:46:33.516Z,3.47
2023-04-02T01:49:03.243Z,3.44
2023-04-02T01:51:34.777Z,3.39
2023-04-02T01:54:04.303Z,3.41
2023-04-02T01:56:31.184Z,3.35
2023-04-02T01:58:58.788Z,3.29
2023-04-02T02:01:34.213Z,3.27
2023-04-02T02:04:02.024Z,3.25
2023-04-02T02:06:29.024Z,3.22
2023-04-02T02:09:01.391Z,3.19
2023-04-02T02:11:31.091Z,3.08
2023-04-02T02:14:34.062Z,3.07
2023-04-02T02:17:02.792Z,3.01
2023-04-02T02:19:38.519Z,2.94
2023-04-02T02:22:27.272Z,2.84
2023-04-02T02:24:56.138Z,2.82
2023-04-02T02:27:22.773Z,2.84
2023-04-02T02:30:10.901Z,2.50
2023-04-02T02:32:47.196Z,2.54
2023-04-02T02:35:23.607Z,2.62
2023-04-02T02:38:00.916Z,2.63
2023-04-02T02:40:34.408Z,2.66
2023-04-02T02:43:06.260Z,2.49
2023-04-02T02:45:38.939Z,2.66
2023-04-02T02:48:19.453Z,2.75
2023-04-02T02:50:46.437Z,2.74
2023-04-02T02:53:22.585Z,2.66
2023-04-02T02:55:53.606Z,2.53
2023-04-02T02:58:27.397Z,2.50
2023-04-02T03:00:54.455Z,2.44
2023-04-02T03:03:24.785Z,2.33
2023-04-02T03:06:02.743Z,2.31
2023-04-02T03:08:34.724Z,2.28
2023-04-02T03:11:39.877Z,2.26
2023-04-02T03:14:27.132Z,2.18
2023-04-02T03:17:00.831Z,2.15
2023-04-02T03:19:49.983Z,2.16
2023-04-02T03:22:29.805Z,2.09
2023-04-02T03:25:03.634Z,2.15
2023-04-02T03:27:37.996Z,2.19
2023-04-02T03:30:23.109Z,2.17
2023-04-02T03:32:54.704Z,2.16
2023-04-02T03:35:47.305Z,2.22
2023-04-02T03:38:24.807Z,2.32
2023-04-02T03:41:13.175Z,2.34
2023-04-02T03:43:44.042Z,2.34
2023-04-02T03:46:25.748Z,2.43
2023-04-02T03:48:59.395Z,2.52
2023-04-02T03:51:52.993Z,2.59
2023-04-02T03:54:19.830Z,2.62
2023-04-02T03:56:47.675Z,2.34
2023-04-02T03:59:28.253Z,2.02
2023-04-02T04:02:11.086Z,1.96
2023-04-02T04:04:41.440Z,2.27
2023-04-02T04:07:16.282Z,2.45
2023-04-02T04:09:46.845Z,2.49
2023-04-02T04:12:27.028Z,2.60
2023-04-02T04:15:14.238Z,2.68
2023-04-02T04:18:01.961Z,2.72
2023-04-02T04:20:57.003Z,2.74
2023-04-02T04:23:30.111Z,2.67
2023-04-02T04:26:09.619Z,2.70
2023-04-02T04:28:41.867Z,2.64
2023-04-02T04:31:18.233Z,2.68
2023-04-02T04:33:50.549Z,2.78
2023-04-02T04:36:31.502Z,2.85
2023-04-02T04:39:05.716Z,2.79
2023-04-02T04:41:36.135Z,2.90
2023-04-02T04:44:24.833Z,2.95
2023-04-02T04:46:56.068Z,2.92
2023-04-02T04:49:31.866Z,2.91
2023-04-02T04:52:21.571Z,2.97
2023-04-02T04:54:48.208Z,2.93
2023-04-02T04:57:41.486Z,2.94
2023-04-02T05:00:17.334Z,2.73
2023-04-02T05:02:57.744Z,2.75
2023-04-02T05:05:29.979Z,2.83
2023-04-02T05:08:04.332Z,2.98
2023-04-02T05:10:43.668Z,3.11
2023-04-02T05:13:35.420Z,3.14
2023-04-02T05:16:16.841Z,3.26
2023-04-02T05:19:04.371Z,3.31
2023-04-02T05:21:42.993Z,3.44
2023-04-02T05:24:27.667Z,3.52
2023-04-02T05:27:00.728Z,3.47
2023-04-02T05:29:37.509Z,3.52
2023-04-02T05:32:30.582Z,3.15
2023-04-02T05:34:58.086Z,3.43
2023-04-02T05:37:29.200Z,3.62
2023-04-02T05:39:59.522Z,3.76
2023-04-02T05:42:32.289Z,3.74
2023-04-02T05:45:27.833Z,3.87
2023-04-02T05:48:02.988Z,4.05
2023-04-02T05:50:37.217Z,4.23
2023-04-02T05:53:13.418Z,4.36
2023-04-02T05:55:58.087Z,4.39
2023-04-02T05:58:36.641Z,4.59
2023-04-02T06:01:24.162Z,4.62
2023-04-02T06:04:04.146Z,4.56
2023-04-02T06:06:43.584Z,4.70
2023-04-02T06:09:31.900Z,4.64
2023-04-02T06:12:42.858Z,4.92
2023-04-02T06:15:14.288Z,4.97
2023-04-02T06:18:19.135Z,5.01
2023-04-02T06:20:46.168Z,5.09
2023-04-02T06:23:18.205Z,5.15
2023-04-02T06:25:54.480Z,5.26
2023-04-02T06:28:28.990Z,5.39
2023-04-02T06:31:04.495Z,5.35
2023-04-02T06:33:31.221Z,5.45
2023-04-02T06:36:00.319Z,5.43
2023-04-02T06:38:30.265Z,5.52
2023-04-02T06:41:00.012Z,5.44
2023-04-02T06:43:35.602Z,5.52
2023-04-02T06:46:11.049Z,5.58
2023-04-02T06:48:39.320Z,5.33
2023-04-02T06:51:10.390Z,5.44
2023-04-02T06:53:44.546Z,5.52
2023-04-02T06:56:31.726Z,5.71
2023-04-02T06:58:59.083Z,6.05
2023-04-02T07:01:30.582Z,6.69
2023-04-02T07:03:58.006Z,7.30
2023-04-02T07:06:24.923Z,7.64
2023-04-02T07:08:51.653Z,8.10
2023-04-02T07:11:21.936Z,8.57
2023-04-02T07:13:50.497Z,8.16
2023-04-02T07:16:25.592Z,7.58
2023-04-02T07:18:55.456Z,7.39
2023-04-02T07:21:22.415Z,7.23
2023-04-02T07:23:49.101Z,7.53
2023-04-02T07:26:18.407Z,6.98
2023-04-02T07:28:45.979Z,7.18
2023-04-02T07:31:18.678Z,7.22
2023-04-02T07:33:46.007Z,7.45
2023-04-02T07:36:18.636Z,7.66
2023-04-02T07:38:45.408Z,7.33
2023-04-02T07:41:12.246Z,7.23
2023-04-02T07:43:39.819Z,7.00
2023-04-02T07:46:07.933Z,7.17
2023-04-02T07:48:34.743Z,7.32
2023-04-02T07:51:03.268Z,7.47
2023-04-02T07:53:33.210Z,7.17
2023-04-02T07:56:02.111Z,7.17
2023-04-02T07:58:30.871Z,7.18
2023-04-02T08:00:58.281Z,7.25
2023-04-02T08:03:25.622Z,7.31
2023-04-02T08:05:57.444Z,7.33
2023-04-02T08:08:25.352Z,7.34
2023-04-02T08:10:52.034Z,7.16
2023-04-02T08:13:19.149Z,7.22
2023-04-02T08:15:45.913Z,7.40
2023-04-02T08:18:12.790Z,7.24
2023-04-02T08:20:39.552Z,7.11
2023-04-02T08:23:15.466Z,7.02
2023-04-02T08:25:42.184Z,7.03
2023-04-02T08:28:09.069Z,7.19
2023-04-02T08:30:36.456Z,7.56
2023-04-02T08:33:04.303Z,7.67
2023-04-02T08:35:31.379Z,7.84
2023-04-02T08:37:58.365Z,8.48
2023-04-02T08:40:29.808Z,8.74
2023-04-02T08:43:05.912Z,9.33
2023-04-02T08:45:55.570Z,9.70
2023-04-02T08:48:23.481Z,9.55
2023-04-02T08:50:51.088Z,9.86
2023-04-02T08:53:28.914Z,9.68
2023-04-02T08:56:17.991Z,10.20
2023-04-02T08:58:48.553Z,10.43
2023-04-02T09:01:36.192Z,10.20
2023-04-02T09:04:13.849Z,10.27
2023-04-02T09:06:42.063Z,10.41
2023-04-02T09:09:09.099Z,10.87
2023-04-02T09:11:44.372Z,10.85
2023-04-02T09:14:40.019Z,10.67
2023-04-02T09:17:19.354Z,10.36
2023-04-02T09:20:18.458Z,10.83
2023-04-02T09:22:53.629Z,10.96
2023-04-02T09:25:29.874Z,10.69
2023-04-02T09:28:00.753Z,10.44
2023-04-02T09:30:41.976Z,10.42
2023-04-02T09:33:09.129Z,10.36
2023-04-02T09:35:57.601Z,10.43
2023-04-02T09:38:30.812Z,10.66
2023-04-02T09:40:59.333Z,10.83
2023-04-02T09:43:31.981Z,10.38
2023-04-02T09:46:13.668Z,10.62
2023-04-02T09:48:53.719Z,10.43
2023-04-02T09:51:26.493Z,10.71
2023-04-02T09:54:02.321Z,10.67
2023-04-02T09:56:33.654Z,11.22
2023-04-02T09:59:05.339Z,11.62
2023-04-02T10:01:38.838Z,11.22
2023-04-02T10:04:26.823Z,10.86
2023-04-02T10:06:57.970Z,10.75
2023-04-02T10:09:31.062Z,11.10
2023-04-02T10:12:00.160Z,11.08
2023-04-02T10:14:45.986Z,10.89
2023-04-02T10:17:19.651Z,10.72
2023-04-02T10:19:58.701Z,10.50
2023-04-02T10:22:28.060Z,10.61
2023-04-02T10:24:54.767Z,10.63
2023-04-02T10:27:33.475Z,10.17
2023-04-02T10:30:42.276Z,10.05
2023-04-02T10:33:17.683Z,9.50
2023-04-02T10:36:30.376Z,9.47
2023-04-02T10:39:12.471Z,9.66
2023-04-02T10:41:52.935Z,9.78
2023-04-02T10:44:43.544Z,10.06
2023-04-02T10:47:13.133Z,10.09
2023-04-02T10:50:04.724Z,10.29
2023-04-02T10:52:39.341Z,9.92
2023-04-02T10:55:20.101Z,10.04
2023-04-02T10:57:47.321Z,10.13
2023-04-02T11:00:28.566Z,10.08
2023-04-02T11:03:08.073Z,10.58
2023-04-02T11:05:37.359Z,10.24
2023-04-02T11:08:11.904Z,10.76
2023-04-02T11:10:45.078Z,10.84
2023-04-02T11:13:20.557Z,11.52
2023-04-02T11:15:47.433Z,11.71
2023-04-02T11:18:36.734Z,12.57
2023-04-02T11:21:08.311Z,13.15
2023-04-02T11:23:56.479Z,13.88
2023-04-02T11:26:47.385Z,12.92
2023-04-02T11:29:15.822Z,13.85
2023-04-02T11:31:44.343Z,13.58
2023-04-02T11:34:41.955Z,12.65
2023-04-02T11:37:29.088Z,13.27
2023-04-02T11:40:00.302Z,13.42
2023-04-02T11:42:28.105Z,13.23
2023-04-02T11:44:56.686Z,13.22
2023-04-02T11:47:26.057Z,13.87
2023-04-02T11:49:56.450Z,13.37
2023-04-02T11:52:29.583Z,13.68
2023-04-02T11:55:16.477Z,13.77
2023-04-02T11:57:55.367Z,12.76
2023-04-02T12:00:52.458Z,12.58
2023-04-02T12:03:52.304Z,12.67
2023-04-02T12:06:29.510Z,13.03
2023-04-02T12:09:18.891Z,13.84
2023-04-02T12:11:47.368Z,12.90
2023-04-02T12:14:47.229Z,13.55
2023-04-02T12:17:38.298Z,13.03
2023-04-02T12:20:09.636Z,12.45
2023-04-02T12:22:40.643Z,12.32
2023-04-02T12:25:40.181Z,12.79
2023-04-02T12:28:09.869Z,13.12
2023-04-02T12:30:38.587Z,13.39
2023-04-02T12:33:28.409Z,13.24
2023-04-02T12:35:58.521Z,12.51
2023-04-02T12:38:35.136Z,12.22
2023-04-02T12:41:04.712Z,12.14
2023-04-02T12:43:37.640Z,12.06
2023-04-02T12:46:07.475Z,11.27
2023-04-02T12:48:35.976Z,11.26
2023-04-02T12:51:04.145Z,10.70
2023-04-02T12:53:39.420Z,10.09
2023-04-02T12:56:09.573Z,10.20
2023-04-02T12:58:37.771Z,10.59
2023-04-02T13:01:10.908Z,10.52
2023-04-02T13:03:37.964Z,10.37
2023-04-02T13:06:22.343Z,10.34
2023-04-02T13:08:49.268Z,10.41
2023-04-02T13:11:16.318Z,10.44
2023-04-02T13:13:45.054Z,10.51
2023-04-02T13:16:17.690Z,10.17
2023-04-02T13:18:47.601Z,9.71
2023-04-02T13:21:17.159Z,9.94
2023-04-02T13:23:44.426Z,10.06
2023-04-02T13:26:17.449Z,9.23
2023-04-02T13:29:16.981Z,8.74
2023-04-02T13:31:43.788Z,8.51
2023-04-02T13:34:10.626Z,7.98
2023-04-02T13:36:37.546Z,8.25
2023-04-02T13:39:04.869Z,8.14
2023-04-02T13:41:36.759Z,7.81
2023-04-02T13:44:04.260Z,7.56
2023-04-02T13:46:33.536Z,7.53
2023-04-02T13:49:00.587Z,7.50
2023-04-02T13:51:35.707Z,7.43
2023-04-02T13:54:03.919Z,7.65
2023-04-02T13:56:31.139Z,7.78
2023-04-02T13:58:57.805Z,7.40
2023-04-02T14:01:25.433Z,7.21
2023-04-02T14:03:54.908Z,7.18
2023-04-02T14:06:42.485Z,7.47
2023-04-02T14:09:29.380Z,6.82
2023-04-02T14:12:11.199Z,7.46
2023-04-02T14:15:16.970Z,7.30
2023-04-02T14:17:50.921Z,8.08
2023-04-02T14:20:39.043Z,7.71
2023-04-02T14:23:21.321Z,8.23
2023-04-02T14:26:09.521Z,8.31
2023-04-02T14:28:57.546Z,8.03
2023-04-02T14:31:41.256Z,7.53
2023-04-02T14:34:17.192Z,7.47
2023-04-02T14:37:27.360Z,7.90
2023-04-02T14:40:16.139Z,8.23
2023-04-02T14:43:09.115Z,8.37
2023-04-02T14:45:51.725Z,7.62
2023-04-02T14:48:36.062Z,7.47
2023-04-02T14:51:12.442Z,7.52
2023-04-02T14:53:51.604Z,7.88
2023-04-02T14:56:21.822Z,8.71
2023-04-02T14:58:59.964Z,9.16
2023-04-02T15:01:34.292Z,9.53
2023-04-02T15:04:14.100Z,9.60
2023-04-02T15:06:45.661Z,9.88
2023-04-02T15:09:24.500Z,10.03
2023-04-02T15:11:54.962Z,9.76
2023-04-02T15:14:31.711Z,8.72
2023-04-02T15:16:58.387Z,9.16
2023-04-02T15:19:25.069Z,9.69
2023-04-02T15:22:23.073Z,9.62
2023-04-02T15:25:24.250Z,9.39
2023-04-02T15:28:12.507Z,9.33
2023-04-02T15:30:42.450Z,9.38
2023-04-02T15:33:38.036Z,8.42
2023-04-02T15:36:39.560Z,8.13
2023-04-02T15:39:34.541Z,8.38
2023-04-02T15:42:19.771Z,9.04
2023-04-02T15:45:16.020Z,9.31
2023-04-02T15:48:08.894Z,9.39
2023-04-02T15:50:52.211Z,8.83
2023-04-02T15:53:39.158Z,7.87
2023-04-02T15:56:34.156Z,7.23
2023-04-02T15:59:25.546Z,7.00
2023-04-02T16:02:23.683Z,7.36
2023-04-02T16:05:08.174Z,7.02
2023-04-02T16:07:50.169Z,7.61
2023-04-02T16:10:37.962Z,7.28
2023-04-02T16:13:32.470Z,6.64
2023-04-02T16:16:14.537Z,6.51
2023-04-02T16:18:52.392Z,6.68
2023-04-02T16:21:24.764Z,6.99
2023-04-02T16:23:51.774Z,7.37
2023-04-02T16:26:39.029Z,7.53
2023-04-02T16:29:19.160Z,7.68
2023-04-02T16:32:13.441Z,7.47
2023-04-02T16:34:42.687Z,7.19
2023-04-02T16:37:24.519Z,7.23
2023-04-02T16:40:02.010Z,7.34
2023-04-02T16:42:50.516Z,7.37
2023-04-02T16:45:31.342Z,7.39
2023-04-02T16:48:09.183Z,7.34
2023-04-02T16:51:13.401Z,7.31
2023-04-02T16:54:01.110Z,7.30
2023-04-02T16:56:31.216Z,7.33
2023-04-02T16:59:28.955Z,7.45
2023-04-02T17:02:01.394Z,7.18
2023-04-02T17:04:46.429Z,7.15
2023-04-02T17:07:36.567Z,7.24
2023-04-02T17:10:21.792Z,7.31
2023-04-02T17:12:57.650Z,6.47
2023-04-02T17:15:28.535Z,6.29
2023-04-02T17:18:01.854Z,6.12
2023-04-02T17:20:29.089Z,6.50
2023-04-02T17:22:56.503Z,6.76
2023-04-02T17:25:31.626Z,6.95
2023-04-02T17:27:58.379Z,7.02
2023-04-02T17:30:40.470Z,7.01
2023-04-02T17:33:13.233Z,7.09
2023-04-02T17:35:57.875Z,6.68
2023-04-02T17:38:44.578Z,6.20
2023-04-02T17:41:13.995Z,5.82
2023-04-02T17:44:10.654Z,5.80
2023-04-02T17:47:11.446Z,5.78
2023-04-02T17:49:52.186Z,5.78
2023-04-02T17:52:32.585Z,6.01
2023-04-02T17:55:13.446Z,5.84
2023-04-02T17:58:05.188Z,5.88
2023-04-02T18:00:43.615Z,5.86
2023-04-02T18:03:21.462Z,5.93
2023-04-02T18:06:08.713Z,5.59
2023-04-02T18:08:59.903Z,5.75
2023-04-02T18:11:42.767Z,5.90
2023-04-02T18:14:37.871Z,6.05
2023-04-02T18:17:14.362Z,6.17
2023-04-02T18:20:05.278Z,6.16
2023-04-02T18:22:43.865Z,6.22
2023-04-02T18:25:47.351Z,6.20
2023-04-02T18:28:35.577Z,6.20
2023-04-02T18:31:18.824Z,6.28
2023-04-02T18:34:21.216Z,6.32
2023-04-02T18:37:06.376Z,6.27
2023-04-02T18:39:58.473Z,6.30
2023-04-02T18:42:37.821Z,6.24
2023-04-02T18:45:18.810Z,6.41
2023-04-02T18:48:06.785Z,6.53
2023-04-02T18:50:45.947Z,6.58
2023-04-02T18:53:15.340Z,6.62
2023-04-02T18:56:12.040Z,6.63
2023-04-02T18:58:49.415Z,6.66
2023-04-02T19:01:22.724Z,6.66
2023-04-02T19:03:53.124Z,6.68
2023-04-02T19:06:42.091Z,6.74
2023-04-02T19:09:16.677Z,6.78
2023-04-02T19:11:43.435Z,6.76
2023-04-02T19:14:16.862Z,6.81
2023-04-02T19:16:55.369Z,6.84
2023-04-02T19:19:26.518Z,6.82
2023-04-02T19:22:17.798Z,6.85
2023-04-02T19:25:08.778Z,6.85
2023-04-02T19:27:51.448Z,6.90
2023-04-02T19:30:45.927Z,6.92
2023-04-02T19:33:26.337Z,6.93
2023-04-02T19:36:02.252Z,6.91
2023-04-02T19:38:43.993Z,6.89
2023-04-02T19:41:39.967Z,6.88
2023-04-02T19:44:13.029Z,6.80
2023-04-02T19:46:40.871Z,6.74
2023-04-02T19:49:13.222Z,6.80
2023-04-02T19:51:39.978Z,6.48
2023-04-02T19:54:06.711Z,6.67
2023-04-02T19:56:33.416Z,6.48
2023-04-02T19:59:02.461Z,6.73
2023-04-02T20:01:34.902Z,6.77
2023-04-02T20:04:01.724Z,6.57
2023-04-02T20:06:30.093Z,6.65
2023-04-02T20:08:57.201Z,6.69
2023-04-02T20:11:24.907Z,6.51
2023-04-02T20:13:52.734Z,6.45
2023-04-02T20:16:20.627Z,6.06
2023-04-02T20:18:48.471Z,5.98
2023-04-02T20:21:15.355Z,5.99
2023-04-02T20:23:42.008Z,5.60
2023-04-02T20:26:08.784Z,5.62
2023-04-02T20:28:35.424Z,5.73
2023-04-02T20:31:13.495Z,5.77
2023-04-02T20:33:40.839Z,5.80
2023-04-02T20:36:09.886Z,5.69
2023-04-02T20:38:36.958Z,5.53
2023-04-02T20:41:06.299Z,5.45
2023-04-02T20:43:34.429Z,5.44
2023-04-02T20:46:08.345Z,5.41
2023-04-02T20:48:37.635Z,5.38
2023-04-02T20:51:06.239Z,5.32
2023-04-02T20:53:34.924Z,5.11
2023-04-02T20:56:06.854Z,5.14
2023-04-02T20:58:35.605Z,5.07
2023-04-02T21:01:10.729Z,4.85
2023-04-02T21:03:39.743Z,4.86
2023-04-02T21:06:12.919Z,4.75
2023-04-02T21:08:39.703Z,4.76
2023-04-02T21:11:07.279Z,4.85
2023-04-02T21:13:36.341Z,4.96
2023-04-02T21:16:05.377Z,5.04
2023-04-02T21:18:32.261Z,5.02
2023-04-02T21:21:04.714Z,5.00
2023-04-02T21:23:32.614Z,5.02
2023-04-02T21:26:02.058Z,5.04
2023-04-02T21:28:29.069Z,5.03
2023-04-02T21:31:07.072Z,4.92
2023-04-02T21:33:39.689Z,4.99
2023-04-02T21:36:11.886Z,4.74
2023-04-02T21:38:46.581Z,4.65
2023-04-02T21:41:22.347Z,4.48
2023-04-02T21:43:49.446Z,4.40
2023-04-02T21:46:18.393Z,4.43
2023-04-02T21:48:45.664Z,4.51
2023-04-02T21:51:15.347Z,4.37
2023-04-02T21:53:43.153Z,4.27
2023-04-02T21:56:14.232Z,3.99
2023-04-02T21:58:41.624Z,3.92
2023-04-02T22:01:14.039Z,3.74
2023-04-02T22:03:47.823Z,3.68
2023-04-02T22:06:15.914Z,3.50
2023-04-02T22:08:44.231Z,3.49
2023-04-02T22:11:13.947Z,3.43
2023-04-02T22:13:42.309Z,3.44
2023-04-02T22:16:13.150Z,3.56
2023-04-02T22:18:40.259Z,3.22
2023-04-02T22:21:07.844Z,3.23
2023-04-02T22:23:35.580Z,3.28
2023-04-02T22:26:03.451Z,3.24
2023-04-02T22:28:30.607Z,3.21
2023-04-02T22:31:29.089Z,3.16
2023-04-02T22:33:56.961Z,3.06
2023-04-02T22:36:24.322Z,3.17
2023-04-02T22:38:51.217Z,3.16
2023-04-02T22:41:27.583Z,3.13
2023-04-02T22:43:58.467Z,2.94
2023-04-02T22:46:26.532Z,3.00
2023-04-02T22:48:54.311Z,2.92
2023-04-02T22:51:22.592Z,2.77
2023-04-02T22:53:50.326Z,2.87
2023-04-02T22:56:21.591Z,2.78
2023-04-02T22:58:48.764Z,2.86
2023-04-02T23:01:18.867Z,2.64
2023-04-02T23:03:45.740Z,2.77
2023-04-02T23:06:15.623Z,2.66
2023-04-02T23:08:42.869Z,2.57
2023-04-02T23:11:16.509Z,2.68
2023-04-02T23:13:44.428Z,2.50
2023-04-02T23:16:13.147Z,2.52
2023-04-02T23:18:41.144Z,2.72
2023-04-02T23:21:09.399Z,2.75
2023-04-02T23:23:36.576Z,2.66
2023-04-02T23:26:10.261Z,2.53
2023-04-02T23:28:38.110Z,2.52
2023-04-02T23:31:06.915Z,2.74
2023-04-02T23:33:34.826Z,2.64
2023-04-02T23:36:07.626Z,2.57
2023-04-02T23:38:34.358Z,2.60
2023-04-02T23:41:00.950Z,2.39
2023-04-02T23:43:27.663Z,2.39
2023-04-02T23:45:54.332Z,2.29
2023-04-02T23:48:21.096Z,2.50
2023-04-02T23:50:47.781Z,2.39
2023-04-02T23:53:14.439Z,2.57
2023-04-02T23:55:41.418Z,2.55
2023-04-02T23:58:08.362Z,2.57
